LiveATC.Net - Listen to live air traffic control over the Internet!


ICAO: KOUN  IATA: OUN   Airport: University of Oklahoma Westheimer Airport
City: Norman   State/Province: Oklahoma
Country: United States   Continent: North America
KOUN METAR Weather: KOUN 201115Z AUTO 01013G24KT 10SM CLR M08/M17 A3053 RMK AO2 T10791171
KOUN Flight Activity (FlightAware)
KOUN Webcam:  (Airport Webcams) 
KOUN Airport Info   (iFlightPlanner)
KOUN VFR Sectional Chart   (iFlightPlanner) 
KOUN IFR Low Altitude Chart   (iFlightPlanner) 
KOUN IFR High Altitude Chart   (iFlightPlanner) 

KOUN Tower
Feed Status: UP   Listeners: 0
Listen in your browser - HTML5 player (in browser, HTML5)
Click here to listen with your own player (launches your MP3 player)
Archive Access: KOUN Tower
FacilityFrequency
Westheimer Tower118.000

NOTICE

Unauthorized use prohibited. See LiveATC.net Terms of Service


Airport/ARTCC Code
Frequency Search
(e.g., 124.400, 128.75)
Site-wide search
 


Browse Feeds
Top 50 Feeds
HF Oceanic Feeds
Coverage Map
Bad Weather Areas

LiveATC FAQ
Offer LiveATC feed
Contact LiveATC.net
Press Inquiries

LiveATC on iPhone
LiveATC on Android

LiveATC Mobile
(Mobile browser)

ATC Audio Archives
Interesting Recordings

LiveATC Forums


Home Page
About LiveATC.net
Make a Donation
Terms of Use
Privacy Policy

Canadian Air Freqs

AIRMETs/SIGMETs

FAA Airport Status
NAS Status
Arrival Demand


Server Software By:
Icecast.org
Liquidsoap